createdAt,value
2022-08-14T00:00:51.874Z,1006.70
2022-08-14T00:01:55.413Z,1006.70
2022-08-14T00:02:52.521Z,1006.57
2022-08-14T00:03:53.339Z,1006.57
2022-08-14T00:04:53.062Z,1006.59
2022-08-14T00:05:59.941Z,1006.57
2022-08-14T00:06:54.601Z,1006.59
2022-08-14T00:07:53.878Z,1006.56
2022-08-14T00:08:54.139Z,1006.56
2022-08-14T00:10:50.231Z,1006.57
2022-08-14T00:10:55.703Z,1006.56
2022-08-14T00:11:54.983Z,1006.61
2022-08-14T00:12:56.808Z,1006.59
2022-08-14T00:13:55.616Z,1006.59
2022-08-14T00:14:55.963Z,1006.56
2022-08-14T00:15:56.210Z,1006.61
2022-08-14T00:16:56.424Z,1006.59
2022-08-14T00:17:56.773Z,1006.60
2022-08-14T00:19:05.516Z,1006.57
2022-08-14T00:19:58.381Z,1006.55
2022-08-14T00:20:57.665Z,1006.52
2022-08-14T00:21:57.844Z,1006.54
2022-08-14T00:22:58.582Z,1006.47
2022-08-14T00:24:01.671Z,1006.50
2022-08-14T00:24:58.676Z,1006.47
2022-08-14T00:26:06.753Z,1006.43
2022-08-14T00:27:02.181Z,1006.45
2022-08-14T00:27:59.512Z,1006.48
2022-08-14T00:28:59.865Z,1006.47
2022-08-14T00:30:00.080Z,1006.50
2022-08-14T00:31:00.365Z,1006.50
2022-08-14T00:32:00.584Z,1006.51
2022-08-14T00:33:14.549Z,1006.53
2022-08-14T00:34:36.626Z,1006.53
2022-08-14T00:35:02.387Z,1006.49
2022-08-14T00:36:36.429Z,1006.51
2022-08-14T00:37:02.918Z,1006.46
2022-08-14T00:38:02.255Z,1006.46
2022-08-14T00:39:02.596Z,1006.47
2022-08-14T00:40:02.829Z,1006.43
2022-08-14T00:41:04.031Z,1006.41
2022-08-14T00:42:03.386Z,1006.36
2022-08-14T00:43:04.003Z,1006.37
2022-08-14T00:44:03.994Z,1006.38
2022-08-14T00:45:04.335Z,1006.34
2022-08-14T00:46:05.157Z,1006.40
2022-08-14T00:47:04.998Z,1006.38
2022-08-14T00:48:05.290Z,1006.35
2022-08-14T00:49:05.616Z,1006.35
2022-08-14T00:50:05.925Z,1006.32
2022-08-14T00:51:06.155Z,1006.34
2022-08-14T00:52:06.455Z,1006.28
2022-08-14T00:53:06.693Z,1006.24
2022-08-14T00:54:16.788Z,1006.22
2022-08-14T00:55:08.281Z,1006.25
2022-08-14T00:56:08.430Z,1006.27
2022-08-14T00:57:07.777Z,1006.25
2022-08-14T00:58:08.091Z,1006.17
2022-08-14T00:59:08.371Z,1006.18
2022-08-14T01:00:34.244Z,1006.17
2022-08-14T01:01:10.057Z,1006.20
2022-08-14T01:02:09.695Z,1006.17
2022-08-14T01:03:09.671Z,1006.13
2022-08-14T01:04:09.823Z,1006.09
2022-08-14T01:05:11.116Z,1006.10
2022-08-14T01:06:10.400Z,1006.07
2022-08-14T01:07:10.690Z,1006.07
2022-08-14T01:08:50.657Z,1006.08
2022-08-14T01:09:12.376Z,1006.09
2022-08-14T01:10:11.574Z,1006.09
2022-08-14T01:11:11.919Z,1006.05
2022-08-14T01:12:13.179Z,1006.05
2022-08-14T01:13:13.528Z,1006.05
2022-08-14T01:14:25.322Z,1006.09
2022-08-14T01:15:14.698Z,1006.06
2022-08-14T01:16:13.957Z,1006.02
2022-08-14T01:17:13.536Z,1005.99
2022-08-14T01:18:13.858Z,1005.97
2022-08-14T01:19:14.151Z,1005.99
2022-08-14T01:20:27.671Z,1005.99
2022-08-14T01:21:15.748Z,1005.96
2022-08-14T01:22:18.932Z,1005.98
2022-08-14T01:23:16.759Z,1005.91
2022-08-14T01:24:24.708Z,1005.84
2022-08-14T01:25:16.850Z,1005.86
2022-08-14T01:26:16.613Z,1005.84
2022-08-14T01:27:17.432Z,1005.82
2022-08-14T01:28:46.470Z,1005.76
2022-08-14T01:29:52.000Z,1005.78
2022-08-14T01:30:20.997Z,1005.71
2022-08-14T01:31:17.581Z,1005.64
2022-08-14T01:32:22.777Z,1005.64
2022-08-14T01:33:19.174Z,1005.58
2022-08-14T01:35:18.200Z,1005.59
2022-08-14T01:36:03.776Z,1005.54
2022-08-14T01:36:21.047Z,1005.56
2022-08-14T01:37:19.380Z,1005.53
2022-08-14T01:38:19.619Z,1005.53
2022-08-14T01:39:19.892Z,1005.53
2022-08-14T01:40:20.222Z,1005.56
2022-08-14T01:41:23.109Z,1005.51
2022-08-14T01:42:31.359Z,1005.51
2022-08-14T01:43:26.548Z,1005.47
2022-08-14T01:44:31.364Z,1005.47
2022-08-14T01:45:25.533Z,1005.40
2022-08-14T01:46:24.529Z,1005.45
2022-08-14T01:47:22.529Z,1005.43
2022-08-14T01:48:22.530Z,1005.41
2022-08-14T01:49:22.824Z,1005.40
2022-08-14T01:50:24.084Z,1005.40
2022-08-14T01:51:23.393Z,1005.40
2022-08-14T01:52:34.759Z,1005.35
2022-08-14T01:53:25.147Z,1005.39
2022-08-14T01:54:25.322Z,1005.40
2022-08-14T01:55:25.650Z,1005.32
2022-08-14T01:56:24.882Z,1005.33
2022-08-14T01:57:26.174Z,1005.35
2022-08-14T01:58:28.958Z,1005.28
2022-08-14T01:59:25.866Z,1005.30
2022-08-14T02:00:27.618Z,1005.29
2022-08-14T02:01:26.659Z,1005.32
2022-08-14T02:02:26.680Z,1005.26
2022-08-14T02:03:30.194Z,1005.26
2022-08-14T02:04:54.754Z,1005.29
2022-08-14T02:05:28.574Z,1005.28
2022-08-14T02:06:32.969Z,1005.35
2022-08-14T02:07:44.706Z,1005.38
2022-08-14T02:08:34.613Z,1005.43
2022-08-14T02:09:29.611Z,1005.38
2022-08-14T02:10:28.864Z,1005.41
2022-08-14T02:11:29.221Z,1005.45
2022-08-14T02:12:29.562Z,1005.41
2022-08-14T02:13:29.743Z,1005.37
2022-08-14T02:14:31.455Z,1005.38
2022-08-14T02:15:30.296Z,1005.39
2022-08-14T02:16:30.643Z,1005.41
2022-08-14T02:17:31.067Z,1005.40
2022-08-14T02:18:32.735Z,1005.37
2022-08-14T02:19:31.738Z,1005.35
2022-08-14T02:20:31.755Z,1005.32
2022-08-14T02:21:32.100Z,1005.38
2022-08-14T02:22:34.011Z,1005.38
2022-08-14T02:23:32.658Z,1005.35
2022-08-14T02:24:39.130Z,1005.33
2022-08-14T02:25:34.198Z,1005.33
2022-08-14T02:26:33.454Z,1005.35
2022-08-14T02:28:22.504Z,1005.36
2022-08-14T02:28:57.584Z,1005.33
2022-08-14T02:30:00.502Z,1005.34
2022-08-14T02:30:35.577Z,1005.34
2022-08-14T02:31:42.654Z,1005.29
2022-08-14T02:32:37.213Z,1005.34
2022-08-14T02:33:39.069Z,1005.31
2022-08-14T02:34:36.281Z,1005.30
2022-08-14T02:35:40.863Z,1005.34
2022-08-14T02:37:02.410Z,1005.39
2022-08-14T02:37:47.509Z,1005.39
2022-08-14T02:38:37.735Z,1005.40
2022-08-14T02:39:37.467Z,1005.38
2022-08-14T02:40:37.257Z,1005.41
2022-08-14T02:41:39.890Z,1005.43
2022-08-14T02:42:37.891Z,1005.46
2022-08-14T02:43:46.238Z,1005.45
2022-08-14T02:44:40.008Z,1005.41
2022-08-14T02:45:44.758Z,1005.41
2022-08-14T02:46:41.216Z,1005.43
2022-08-14T02:47:39.524Z,1005.44
2022-08-14T02:49:04.364Z,1005.42
2022-08-14T02:49:41.047Z,1005.42
2022-08-14T02:50:40.360Z,1005.39
2022-08-14T02:51:40.680Z,1005.40
2022-08-14T02:52:55.845Z,1005.41
2022-08-14T02:53:42.551Z,1005.41
2022-08-14T02:54:41.528Z,1005.41
2022-08-14T02:55:41.821Z,1005.38
2022-08-14T02:57:14.407Z,1005.37
2022-08-14T02:57:43.442Z,1005.37
2022-08-14T02:58:42.700Z,1005.33
2022-08-14T02:59:43.336Z,1005.34
2022-08-14T03:00:43.359Z,1005.31
2022-08-14T03:01:51.047Z,1005.33
2022-08-14T03:02:56.748Z,1005.32
2022-08-14T03:03:45.129Z,1005.34
2022-08-14T03:04:44.373Z,1005.27
2022-08-14T03:05:44.688Z,1005.28
2022-08-14T03:06:58.304Z,1005.26
2022-08-14T03:07:46.279Z,1005.23
2022-08-14T03:08:46.647Z,1005.21
2022-08-14T03:10:27.827Z,1005.23
2022-08-14T03:10:49.217Z,1005.23
2022-08-14T03:11:46.513Z,1005.20
2022-08-14T03:12:46.792Z,1005.20
2022-08-14T03:13:47.125Z,1005.20
2022-08-14T03:14:47.292Z,1005.18
2022-08-14T03:15:47.640Z,1005.16
2022-08-14T03:16:49.350Z,1005.18
2022-08-14T03:17:57.159Z,1005.21
2022-08-14T03:18:52.582Z,1005.18
2022-08-14T03:19:48.743Z,1005.21
2022-08-14T03:20:49.004Z,1005.20
2022-08-14T03:21:52.959Z,1005.19
2022-08-14T03:22:50.956Z,1005.17
2022-08-14T03:23:49.863Z,1005.15
2022-08-14T03:24:50.034Z,1005.14
2022-08-14T03:25:50.283Z,1005.17
2022-08-14T03:26:57.424Z,1005.16
2022-08-14T03:27:59.080Z,1005.13
2022-08-14T03:28:52.215Z,1005.15
2022-08-14T03:29:51.485Z,1005.18
2022-08-14T03:30:51.714Z,1005.19
2022-08-14T03:31:51.985Z,1005.17
2022-08-14T03:32:52.252Z,1005.16
2022-08-14T03:33:54.254Z,1005.17
2022-08-14T03:34:55.644Z,1005.15
2022-08-14T03:36:05.148Z,1005.15
2022-08-14T03:37:39.282Z,1005.14
2022-08-14T03:39:13.230Z,1005.12
2022-08-14T03:39:13.948Z,1005.12
2022-08-14T03:39:55.234Z,1005.16
2022-08-14T03:40:54.456Z,1005.14
2022-08-14T03:41:54.777Z,1005.11
2022-08-14T03:42:55.024Z,1005.09
2022-08-14T03:43:57.139Z,1005.08
2022-08-14T03:45:19.171Z,1005.05
2022-08-14T03:45:56.902Z,1005.03
2022-08-14T03:46:56.331Z,1005.05
2022-08-14T03:48:01.618Z,1005.00
2022-08-14T03:48:57.737Z,1005.03
2022-08-14T03:49:58.255Z,1005.04
2022-08-14T03:50:57.229Z,1005.03
2022-08-14T03:51:58.159Z,1005.00
2022-08-14T03:53:00.479Z,1005.04
2022-08-14T03:53:58.065Z,1005.05
2022-08-14T03:54:58.236Z,1005.02
2022-08-14T03:55:58.535Z,1004.97
2022-08-14T03:56:58.807Z,1004.96
2022-08-14T03:58:00.595Z,1005.00
2022-08-14T03:58:59.428Z,1004.99
2022-08-14T03:59:59.664Z,1004.92
2022-08-14T04:00:59.939Z,1004.96
2022-08-14T04:02:02.311Z,1004.94
2022-08-14T04:03:00.391Z,1004.92
2022-08-14T04:04:00.703Z,1004.94
2022-08-14T04:05:12.113Z,1004.96
2022-08-14T04:06:02.299Z,1004.96
2022-08-14T04:07:01.630Z,1004.94
2022-08-14T04:08:22.965Z,1004.94
2022-08-14T04:09:03.289Z,1004.95
2022-08-14T04:10:02.873Z,1004.98
2022-08-14T04:11:08.034Z,1004.95
2022-08-14T04:12:04.146Z,1004.96
2022-08-14T04:13:04.244Z,1004.99
2022-08-14T04:14:03.879Z,1004.99
2022-08-14T04:15:04.139Z,1005.03
2022-08-14T04:16:05.091Z,1005.01
2022-08-14T04:17:04.686Z,1004.98
2022-08-14T04:18:06.020Z,1005.01
2022-08-14T04:19:05.380Z,1005.00
2022-08-14T04:20:05.566Z,1005.04
2022-08-14T04:21:05.880Z,1005.07
2022-08-14T04:22:06.274Z,1005.05
2022-08-14T04:23:06.470Z,1005.03
2022-08-14T04:24:07.778Z,1005.05
2022-08-14T04:25:07.008Z,1005.01
2022-08-14T04:26:08.311Z,1005.05
2022-08-14T04:27:07.641Z,1005.00
2022-08-14T04:28:07.877Z,1004.98
2022-08-14T04:29:16.189Z,1004.96
2022-08-14T04:30:09.468Z,1004.93
2022-08-14T04:31:09.793Z,1004.89
2022-08-14T04:32:59.246Z,1004.97
2022-08-14T04:33:17.068Z,1004.94
2022-08-14T04:34:20.794Z,1004.95
2022-08-14T04:35:11.210Z,1004.94
2022-08-14T04:36:10.259Z,1004.97
2022-08-14T04:37:11.549Z,1004.96
2022-08-14T04:38:36.773Z,1004.99
2022-08-14T04:39:12.243Z,1004.98
2022-08-14T04:40:11.392Z,1004.96
2022-08-14T04:41:11.600Z,1004.94
2022-08-14T04:42:12.296Z,1004.99
2022-08-14T04:43:14.387Z,1004.97
2022-08-14T04:44:35.896Z,1004.95
2022-08-14T04:45:13.803Z,1004.99
2022-08-14T04:46:56.472Z,1004.94
2022-08-14T04:47:14.448Z,1004.96
2022-08-14T04:48:13.794Z,1004.95
2022-08-14T04:49:16.041Z,1004.93
2022-08-14T04:50:14.319Z,1004.93
2022-08-14T04:51:14.508Z,1004.90
2022-08-14T04:52:15.426Z,1004.92
2022-08-14T04:53:15.073Z,1004.93
2022-08-14T04:54:17.245Z,1004.88
2022-08-14T04:55:15.705Z,1004.80
2022-08-14T04:56:30.975Z,1004.81
2022-08-14T04:57:17.232Z,1004.82
2022-08-14T04:58:21.445Z,1004.83
2022-08-14T04:59:17.793Z,1004.82
2022-08-14T05:00:18.183Z,1004.84
2022-08-14T05:01:17.866Z,1004.82
2022-08-14T05:02:17.742Z,1004.80
2022-08-14T05:03:17.936Z,1004.78
2022-08-14T05:04:19.984Z,1004.81
2022-08-14T05:05:18.484Z,1004.83
2022-08-14T05:06:37.360Z,1004.84
2022-08-14T05:07:20.062Z,1004.84
2022-08-14T05:08:32.099Z,1004.86
2022-08-14T05:09:20.595Z,1004.90
2022-08-14T05:10:21.985Z,1004.90
2022-08-14T05:11:20.130Z,1004.85
2022-08-14T05:13:11.257Z,1004.82
2022-08-14T05:13:24.600Z,1004.78
2022-08-14T05:14:45.928Z,1004.78
2022-08-14T05:15:22.154Z,1004.80
2022-08-14T05:16:21.484Z,1004.80
2022-08-14T05:17:21.717Z,1004.82
2022-08-14T05:19:16.798Z,1004.80
2022-08-14T05:19:27.363Z,1004.80
2022-08-14T05:21:56.200Z,1004.90
2022-08-14T05:21:57.671Z,1004.85
2022-08-14T05:22:24.201Z,1004.82
2022-08-14T05:23:23.404Z,1004.81
2022-08-14T05:24:23.657Z,1004.73
2022-08-14T05:25:23.928Z,1004.67
2022-08-14T05:26:24.145Z,1004.67
2022-08-14T05:27:24.358Z,1004.68
2022-08-14T05:28:24.727Z,1004.68
2022-08-14T05:29:25.019Z,1004.64
2022-08-14T05:30:25.246Z,1004.65
2022-08-14T05:31:30.192Z,1004.67
2022-08-14T05:32:27.395Z,1004.61
2022-08-14T05:33:26.157Z,1004.64
2022-08-14T05:34:28.757Z,1004.61
2022-08-14T05:35:27.649Z,1004.57
2022-08-14T05:36:27.244Z,1004.58
2022-08-14T05:37:27.973Z,1004.61
2022-08-14T05:38:31.866Z,1004.62
2022-08-14T05:39:28.175Z,1004.64
2022-08-14T05:40:28.087Z,1004.59
2022-08-14T05:41:52.535Z,1004.59
2022-08-14T05:42:34.132Z,1004.58
2022-08-14T05:43:40.687Z,1004.57
2022-08-14T05:44:30.747Z,1004.61
2022-08-14T05:45:29.561Z,1004.66
2022-08-14T05:46:29.754Z,1004.60
2022-08-14T05:47:38.901Z,1004.55
2022-08-14T05:48:33.885Z,1004.60
2022-08-14T05:49:33.057Z,1004.53
2022-08-14T05:50:31.002Z,1004.57
2022-08-14T05:51:31.697Z,1004.56
2022-08-14T05:52:39.203Z,1004.52
2022-08-14T05:53:34.382Z,1004.50
2022-08-14T05:54:35.590Z,1004.50
2022-08-14T05:55:32.664Z,1004.49
2022-08-14T05:56:32.785Z,1004.49
2022-08-14T05:57:33.020Z,1004.45
2022-08-14T05:58:33.834Z,1004.46
2022-08-14T05:59:38.636Z,1004.50
2022-08-14T06:00:37.071Z,1004.51
2022-08-14T06:01:35.392Z,1004.54
2022-08-14T06:02:34.575Z,1004.54
2022-08-14T06:03:34.785Z,1004.52
2022-08-14T06:04:35.096Z,1004.50
2022-08-14T06:05:35.364Z,1004.54
2022-08-14T06:06:38.452Z,1004.52
2022-08-14T06:07:35.866Z,1004.50
2022-08-14T06:08:41.612Z,1004.50
2022-08-14T06:09:40.584Z,1004.52
2022-08-14T06:10:36.656Z,1004.48
2022-08-14T06:11:37.857Z,1004.50
2022-08-14T06:12:56.543Z,1004.54
2022-08-14T06:13:44.566Z,1004.56
2022-08-14T06:14:38.926Z,1004.53
2022-08-14T06:15:38.168Z,1004.56
2022-08-14T06:16:38.498Z,1004.57
2022-08-14T06:17:46.144Z,1004.56
2022-08-14T06:18:40.165Z,1004.56
2022-08-14T06:19:40.300Z,1004.55
2022-08-14T06:20:40.003Z,1004.58
2022-08-14T06:21:40.619Z,1004.54
2022-08-14T06:22:40.383Z,1004.53
2022-08-14T06:23:40.615Z,1004.52
2022-08-14T06:24:44.004Z,1004.53
2022-08-14T06:25:41.190Z,1004.51
2022-08-14T06:26:41.484Z,1004.51
2022-08-14T06:27:42.787Z,1004.48
2022-08-14T06:28:45.469Z,1004.52
2022-08-14T06:29:42.383Z,1004.53
2022-08-14T06:30:47.234Z,1004.51
2022-08-14T06:31:42.920Z,1004.50
2022-08-14T06:32:43.181Z,1004.50
2022-08-14T06:35:01.289Z,1004.47
2022-08-14T06:35:03.559Z,1004.50
2022-08-14T06:35:46.771Z,1004.49
2022-08-14T06:36:44.328Z,1004.45
2022-08-14T06:37:44.613Z,1004.48
2022-08-14T06:38:44.844Z,1004.50
2022-08-14T06:39:45.198Z,1004.50
2022-08-14T06:40:45.850Z,1004.48
2022-08-14T06:41:59.474Z,1004.46
2022-08-14T06:42:49.411Z,1004.43
2022-08-14T06:43:46.162Z,1004.40
2022-08-14T06:44:46.501Z,1004.44
2022-08-14T06:45:50.069Z,1004.44
2022-08-14T06:46:49.381Z,1004.35
2022-08-14T06:47:47.325Z,1004.35
2022-08-14T06:48:47.595Z,1004.36
2022-08-14T06:49:55.957Z,1004.32
2022-08-14T06:50:49.247Z,1004.28
2022-08-14T06:51:49.898Z,1004.27
2022-08-14T06:52:50.133Z,1004.31
2022-08-14T06:53:49.047Z,1004.29
2022-08-14T06:54:49.393Z,1004.29
2022-08-14T06:55:57.951Z,1004.25
2022-08-14T06:56:54.144Z,1004.26
2022-08-14T06:57:50.144Z,1004.27
2022-08-14T06:58:50.381Z,1004.27
2022-08-14T06:59:50.709Z,1004.32
2022-08-14T07:00:51.040Z,1004.30
2022-08-14T07:01:51.292Z,1004.25
2022-08-14T07:02:52.498Z,1004.25
2022-08-14T07:03:51.716Z,1004.26
2022-08-14T07:04:51.975Z,1004.17
2022-08-14T07:05:58.247Z,1004.16
2022-08-14T07:06:55.574Z,1004.17
2022-08-14T07:07:52.903Z,1004.08
2022-08-14T07:08:53.279Z,1004.07
2022-08-14T07:09:53.642Z,1004.06
2022-08-14T07:10:53.816Z,1004.05
2022-08-14T07:11:54.115Z,1004.06
2022-08-14T07:13:04.095Z,1004.07
2022-08-14T07:13:55.745Z,1004.08
2022-08-14T07:15:01.165Z,1004.10
2022-08-14T07:15:56.319Z,1004.10
2022-08-14T07:16:55.540Z,1004.09
2022-08-14T07:17:55.821Z,1004.18
2022-08-14T07:18:56.211Z,1004.16
2022-08-14T07:19:56.658Z,1004.16
2022-08-14T07:20:56.747Z,1004.12
2022-08-14T07:21:57.011Z,1004.08
2022-08-14T07:22:57.316Z,1004.05
2022-08-14T07:23:57.582Z,1004.10
2022-08-14T07:24:57.841Z,1004.08
2022-08-14T07:25:58.283Z,1004.07
2022-08-14T07:26:58.291Z,1004.03
2022-08-14T07:27:58.543Z,1004.03
2022-08-14T07:28:58.884Z,1004.06
2022-08-14T07:29:59.193Z,1003.98
2022-08-14T07:31:05.248Z,1003.97
2022-08-14T07:32:00.762Z,1003.96
2022-08-14T07:33:00.068Z,1003.93
2022-08-14T07:34:00.335Z,1003.98
2022-08-14T07:35:00.560Z,1003.99
2022-08-14T07:36:00.804Z,1003.94
2022-08-14T07:37:01.607Z,1003.99
2022-08-14T07:38:01.314Z,1003.96
2022-08-14T07:39:03.597Z,1003.97
2022-08-14T07:40:03.029Z,1003.97
2022-08-14T07:41:02.223Z,1003.92
2022-08-14T07:42:02.454Z,1003.93
2022-08-14T07:43:14.350Z,1003.89
2022-08-14T07:44:29.511Z,1003.92
2022-08-14T07:45:04.456Z,1003.89
2022-08-14T07:46:03.746Z,1003.91
2022-08-14T07:47:04.037Z,1003.88
2022-08-14T07:48:04.291Z,1003.85
2022-08-14T07:49:04.574Z,1003.85
2022-08-14T07:50:04.917Z,1003.85
2022-08-14T07:51:10.679Z,1003.85
2022-08-14T07:52:06.458Z,1003.87
2022-08-14T07:53:05.663Z,1003.91
2022-08-14T07:54:06.919Z,1003.87
2022-08-14T07:55:08.185Z,1003.89
2022-08-14T07:56:09.151Z,1003.92
2022-08-14T07:57:12.690Z,1003.90
2022-08-14T07:58:30.279Z,1003.93
2022-08-14T07:59:09.139Z,1003.90
2022-08-14T08:00:07.877Z,1003.92
2022-08-14T08:01:08.095Z,1003.89
2022-08-14T08:02:08.383Z,1003.92
2022-08-14T08:03:09.718Z,1003.92
2022-08-14T08:04:16.707Z,1003.95
2022-08-14T08:05:10.244Z,1004.03
2022-08-14T08:06:10.478Z,1004.02
2022-08-14T08:07:10.678Z,1004.05
2022-08-14T08:08:27.239Z,1004.02
2022-08-14T08:09:11.311Z,1004.00
2022-08-14T08:10:10.613Z,1004.02
2022-08-14T08:11:15.038Z,1003.98
2022-08-14T08:12:14.260Z,1003.99
2022-08-14T08:13:11.429Z,1003.91
2022-08-14T08:14:17.518Z,1003.90
2022-08-14T08:15:13.142Z,1003.81
2022-08-14T08:16:12.329Z,1003.86
2022-08-14T08:17:12.617Z,1003.88
2022-08-14T08:18:20.382Z,1003.85
2022-08-14T08:19:14.477Z,1003.87
2022-08-14T08:20:13.533Z,1003.88
2022-08-14T08:21:13.731Z,1003.86
2022-08-14T08:22:13.991Z,1003.88
2022-08-14T08:23:20.686Z,1003.88
2022-08-14T08:24:19.777Z,1003.89
2022-08-14T08:25:18.065Z,1003.84
2022-08-14T08:26:15.057Z,1003.84
2022-08-14T08:27:16.686Z,1003.84
2022-08-14T08:28:21.836Z,1003.86
2022-08-14T08:29:17.026Z,1003.81
2022-08-14T08:30:16.419Z,1003.85
2022-08-14T08:31:16.649Z,1003.81
2022-08-14T08:32:16.843Z,1003.84
2022-08-14T08:33:17.076Z,1003.86
2022-08-14T08:34:18.129Z,1003.87
2022-08-14T08:35:17.682Z,1003.86
2022-08-14T08:36:18.711Z,1003.84
2022-08-14T08:37:18.408Z,1003.82
2022-08-14T08:39:14.155Z,1003.84
2022-08-14T08:39:42.195Z,1003.84
2022-08-14T08:40:20.636Z,1003.82
2022-08-14T08:41:19.449Z,1003.81
2022-08-14T08:42:24.431Z,1003.78
2022-08-14T08:43:21.007Z,1003.75
2022-08-14T08:44:31.885Z,1003.69
2022-08-14T08:45:21.655Z,1003.66
2022-08-14T08:46:23.650Z,1003.68
2022-08-14T08:47:21.279Z,1003.63
2022-08-14T08:48:31.378Z,1003.64
2022-08-14T08:49:22.883Z,1003.64
2022-08-14T08:50:31.421Z,1003.64
2022-08-14T08:51:22.377Z,1003.59
2022-08-14T08:52:24.469Z,1003.54
2022-08-14T08:53:23.627Z,1003.56
2022-08-14T08:54:26.644Z,1003.51
2022-08-14T08:55:24.472Z,1003.48
2022-08-14T08:56:30.281Z,1003.44
2022-08-14T08:57:24.994Z,1003.39
2022-08-14T08:58:25.117Z,1003.35
2022-08-14T08:59:27.026Z,1003.31
2022-08-14T09:00:26.409Z,1003.32
2022-08-14T09:01:25.224Z,1003.37
2022-08-14T09:02:25.884Z,1003.31
2022-08-14T09:03:27.444Z,1003.28
2022-08-14T09:04:26.043Z,1003.32
2022-08-14T09:05:26.345Z,1003.35
2022-08-14T09:07:00.117Z,1003.37
2022-08-14T09:07:28.023Z,1003.35
2022-08-14T09:08:31.746Z,1003.37
2022-08-14T09:09:30.432Z,1003.34
2022-08-14T09:10:27.822Z,1003.39
2022-08-14T09:11:28.072Z,1003.38
2022-08-14T09:12:36.055Z,1003.35
2022-08-14T09:13:30.654Z,1003.30
2022-08-14T09:14:28.879Z,1003.33
2022-08-14T09:15:36.773Z,1003.23
2022-08-14T09:16:30.353Z,1003.23
2022-08-14T09:17:29.705Z,1003.19
2022-08-14T09:18:29.951Z,1003.14
2022-08-14T09:19:30.226Z,1003.12
2022-08-14T09:20:30.812Z,1003.08
2022-08-14T09:21:31.082Z,1003.10
2022-08-14T09:22:34.844Z,1003.07
2022-08-14T09:23:35.182Z,1003.08
2022-08-14T09:24:36.348Z,1003.05
2022-08-14T09:26:00.196Z,1003.02
2022-08-14T09:26:33.459Z,1003.04
2022-08-14T09:27:32.286Z,1003.07
2022-08-14T09:28:32.534Z,1003.05
2022-08-14T09:29:32.883Z,1003.03
2022-08-14T09:30:33.885Z,1003.03
2022-08-14T09:31:43.017Z,1002.94
2022-08-14T09:32:59.057Z,1002.92
2022-08-14T09:33:35.018Z,1002.91
2022-08-14T09:34:35.236Z,1002.92
2022-08-14T09:35:34.637Z,1002.91
2022-08-14T09:36:34.837Z,1002.90
2022-08-14T09:37:35.122Z,1002.85
2022-08-14T09:38:35.371Z,1002.89
2022-08-14T09:39:35.859Z,1002.84
2022-08-14T09:40:38.768Z,1002.87
2022-08-14T09:42:17.614Z,1002.85
2022-08-14T09:42:37.578Z,1002.87
2022-08-14T09:43:37.780Z,1002.84
2022-08-14T09:44:37.129Z,1002.79
2022-08-14T09:45:39.688Z,1002.77
2022-08-14T09:46:37.713Z,1002.79
2022-08-14T09:47:38.048Z,1002.77
2022-08-14T09:48:38.302Z,1002.75
2022-08-14T09:49:40.596Z,1002.77
2022-08-14T09:50:38.978Z,1002.78
2022-08-14T09:51:44.854Z,1002.73
2022-08-14T09:52:45.289Z,1002.73
2022-08-14T09:54:18.978Z,1002.74
2022-08-14T09:54:40.939Z,1002.75
2022-08-14T09:55:42.478Z,1002.76
2022-08-14T09:56:40.474Z,1002.75
2022-08-14T09:57:40.902Z,1002.78
2022-08-14T09:58:41.126Z,1002.75
2022-08-14T09:59:41.415Z,1002.75
2022-08-14T10:00:41.762Z,1002.75
2022-08-14T10:01:42.009Z,1002.72
2022-08-14T10:02:46.122Z,1002.66
2022-08-14T10:03:42.605Z,1002.66
2022-08-14T10:04:46.249Z,1002.65
2022-08-14T10:05:44.266Z,1002.67
2022-08-14T10:06:43.425Z,1002.60
2022-08-14T10:07:47.519Z,1002.59
2022-08-14T10:08:44.302Z,1002.56
2022-08-14T10:09:44.255Z,1002.57
2022-08-14T10:10:45.617Z,1002.55
2022-08-14T10:11:45.925Z,1002.51
2022-08-14T10:12:45.352Z,1002.51
2022-08-14T10:13:53.098Z,1002.50
2022-08-14T10:14:53.161Z,1002.51
2022-08-14T10:15:47.053Z,1002.49
2022-08-14T10:16:46.336Z,1002.49
2022-08-14T10:17:46.722Z,1002.51
2022-08-14T10:18:46.967Z,1002.50
2022-08-14T10:19:47.273Z,1002.45
2022-08-14T10:20:49.973Z,1002.47
2022-08-14T10:23:10.897Z,1002.48
2022-08-14T10:23:23.087Z,1002.44
2022-08-14T10:23:49.238Z,1002.41
2022-08-14T10:24:50.953Z,1002.41
2022-08-14T10:25:48.831Z,1002.43
2022-08-14T10:26:49.040Z,1002.36
2022-08-14T10:27:49.313Z,1002.37
2022-08-14T10:29:18.821Z,1002.38
2022-08-14T10:29:51.030Z,1002.33
2022-08-14T10:30:50.211Z,1002.32
2022-08-14T10:31:50.410Z,1002.29
2022-08-14T10:32:51.558Z,1002.31
2022-08-14T10:33:51.080Z,1002.31
2022-08-14T10:34:52.843Z,1002.33
2022-08-14T10:35:51.574Z,1002.27
2022-08-14T10:36:51.831Z,1002.30
2022-08-14T10:37:53.163Z,1002.27
2022-08-14T10:38:52.469Z,1002.32
2022-08-14T10:40:05.705Z,1002.28
2022-08-14T10:40:59.442Z,1002.23
2022-08-14T10:41:54.303Z,1002.22
2022-08-14T10:42:53.561Z,1002.17
2022-08-14T10:43:53.788Z,1002.13
2022-08-14T10:44:54.031Z,1002.16
2022-08-14T10:46:03.668Z,1002.13
2022-08-14T10:47:41.210Z,1002.12
2022-08-14T10:48:08.741Z,1002.14
2022-08-14T10:48:56.253Z,1002.11
2022-08-14T10:49:55.542Z,1002.11
2022-08-14T10:50:55.935Z,1002.13
2022-08-14T10:51:56.101Z,1002.10
2022-08-14T10:52:56.373Z,1002.15
2022-08-14T10:53:56.943Z,1002.13
2022-08-14T10:54:57.009Z,1002.15
2022-08-14T10:55:57.176Z,1002.10
2022-08-14T10:56:57.400Z,1002.18
2022-08-14T10:57:57.641Z,1002.10
2022-08-14T10:58:57.956Z,1002.15
2022-08-14T10:59:58.173Z,1002.08
2022-08-14T11:00:58.444Z,1002.08
2022-08-14T11:01:58.638Z,1002.03
2022-08-14T11:02:59.066Z,1002.01
2022-08-14T11:03:59.180Z,1001.97
2022-08-14T11:05:01.100Z,1001.93
2022-08-14T11:06:00.797Z,1001.97
2022-08-14T11:07:00.066Z,1002.08
2022-08-14T11:08:00.335Z,1002.02
2022-08-14T11:09:00.559Z,1002.06
2022-08-14T11:10:00.776Z,1002.03
2022-08-14T11:11:01.188Z,1002.05
2022-08-14T11:12:33.770Z,1002.03
2022-08-14T11:13:02.699Z,1002.00
2022-08-14T11:14:01.991Z,1002.02
2022-08-14T11:15:03.005Z,1001.97
2022-08-14T11:16:02.620Z,1001.88
2022-08-14T11:17:02.834Z,1001.93
2022-08-14T11:18:03.213Z,1001.92
2022-08-14T11:19:03.493Z,1001.90
2022-08-14T11:20:03.738Z,1001.87
2022-08-14T11:21:04.078Z,1001.87
2022-08-14T11:22:04.361Z,1001.81
2022-08-14T11:23:05.087Z,1001.76
2022-08-14T11:24:50.479Z,1001.69
2022-08-14T11:25:06.579Z,1001.71
2022-08-14T11:26:07.156Z,1001.70
2022-08-14T11:27:05.738Z,1001.71
2022-08-14T11:28:05.971Z,1001.68
2022-08-14T11:29:07.321Z,1001.66
2022-08-14T11:30:50.981Z,1001.62
2022-08-14T11:31:07.934Z,1001.62
2022-08-14T11:32:07.299Z,1001.60
2022-08-14T11:33:07.525Z,1001.62
2022-08-14T11:34:10.418Z,1001.56
2022-08-14T11:35:09.149Z,1001.58
2022-08-14T11:36:17.128Z,1001.51
2022-08-14T11:37:23.531Z,1001.54
2022-08-14T11:38:10.012Z,1001.59
2022-08-14T11:39:10.658Z,1001.56
2022-08-14T11:40:09.598Z,1001.45
2022-08-14T11:41:09.863Z,1001.47
2022-08-14T11:42:58.038Z,1001.49
2022-08-14T11:43:11.754Z,1001.43
2022-08-14T11:44:17.652Z,1001.37
2022-08-14T11:45:17.167Z,1001.37
2022-08-14T11:46:17.913Z,1001.36
2022-08-14T11:47:12.556Z,1001.41
2022-08-14T11:48:59.190Z,1001.38
2022-08-14T11:49:18.531Z,1001.37
2022-08-14T11:50:13.486Z,1001.39
2022-08-14T11:51:12.950Z,1001.33
2022-08-14T11:52:13.147Z,1001.32
2022-08-14T11:53:13.555Z,1001.36
2022-08-14T11:54:13.615Z,1001.33
2022-08-14T11:55:14.928Z,1001.39
2022-08-14T11:56:14.297Z,1001.36
2022-08-14T11:57:14.586Z,1001.29
2022-08-14T11:58:15.652Z,1001.39
2022-08-14T11:59:16.132Z,1001.30
2022-08-14T12:00:19.691Z,1001.34
2022-08-14T12:01:15.754Z,1001.30
2022-08-14T12:03:01.837Z,1001.34
2022-08-14T12:03:27.152Z,1001.29
2022-08-14T12:04:31.838Z,1001.30
2022-08-14T12:05:17.772Z,1001.33
2022-08-14T12:06:28.768Z,1001.35
2022-08-14T12:07:18.355Z,1001.25
2022-08-14T12:08:24.290Z,1001.30
2022-08-14T12:09:22.393Z,1001.25